KF4UQS-14 Weather Reports


Display with metric or nautical units.
time (UTC)temp
F
wind
direction
speed
MPH
gust
MPH
rain 1hr
in
rain 24hr
in
rain mn
in
humidity
%
barometer
mb
20240620025608 66 62 0.0 0.0 0.00 0.00 0.00 96 1027.4
20240620025107 67 62 0.0 0.0 0.00 0.00 0.00 96 1027.2
20240620024605 67 62 0.0 0.0 0.00 0.00 0.00 96 1027.2
20240620024104 67 62 0.0 0.0 0.00 0.00 0.00 95 1027.3
20240620023603 68 60 0.0 0.0 0.00 0.00 0.00 95 1027.3
20240620023102 68 57 0.0 0.0 0.00 0.00 0.00 95 1027.1
20240620022601 68 63 0.0 0.0 0.00 0.00 0.00 95 1027.3
20240620022100 67 59 0.0 0.0 0.00 0.00 0.00 94 1027.3
20240620021559 68 59 0.0 0.0 0.00 0.00 0.00 94 1027.2
20240620021057 68 60 0.0 0.0 0.00 0.00 0.00 94 1027.2
20240620020556 68 67 0.0 0.0 0.00 0.00 0.00 94 1027.2
20240620020055 68 68 0.0 0.0 0.00 0.00 0.00 94 1027.2
20240620015553 69 65 0.0 0.0 0.00 0.00 0.00 93 1027.2
20240620015051 69 68 0.0 0.0 0.00 0.00 0.00 93 1027.3
20240620014548 69 66 0.0 0.0 0.00 0.00 0.00 93 1027.2
20240620014047 69 61 0.0 0.0 0.00 0.00 0.00 92 1027.2
20240620013547 69 66 0.0 0.0 0.00 0.00 0.00 92 1027.3
20240620013045 69 55 0.0 0.0 0.00 0.00 0.00 92 1027.2
20240620012545 70 57 0.0 0.0 0.00 0.00 0.00 91 1027.1
20240620012044 70 56 0.0 0.0 0.00 0.00 0.00 91 1027.0
20240620011536 70 61 0.0 0.0 0.00 0.00 0.00 90 1026.9
20240620010924 71 65 0.0 0.0 0.00 0.00 0.00 90 1027.2
20240620010422 71 62 0.0 0.0 0.00 0.00 0.00 88 1027.0
20240620005922 71 62 0.0 0.0 0.00 0.00 0.00 87 1027.0
20240620005421 72 69 0.0 0.0 0.00 0.00 0.00 86 1026.9
20240620004920 73 62 0.0 0.0 0.00 0.00 0.00 85 1027.1
20240620004419 73 56 0.0 0.0 0.00 0.00 0.00 84 1026.9
20240620003918 73 56 0.0 0.0 0.00 0.00 0.00 83 1026.9
20240620003416 74 57 0.0 1.0 0.00 0.00 0.00 82 1027.1
20240620002914 74 55 0.0 0.0 0.00 0.00 0.00 81 1026.9
20240620002414 74 41 0.0 1.0 0.00 0.00 0.00 80 1027.1
20240620001913 75 54 1.0 1.0 0.00 0.00 0.00 79 1026.8
20240620001411 75 55 0.0 0.0 0.00 0.00 0.00 78 1027.0
20240620000911 76 79 2.0 2.0 0.00 0.00 0.00 76 1026.8
20240620000410 77 76 0.0 0.0 0.00 0.00 0.00 74 1026.9
20240619235910 77 159 1.0 1.0 0.00 0.00 0.00 73 1026.9
20240619235408 78 63 1.0 1.0 0.00 0.00 0.00 71 1027.2
20240619234907 78 40 1.0 3.0 0.00 0.00 0.00 71 1026.9
20240619234407 78 73 1.0 2.0 0.00 0.00 0.00 70 1027.1
20240619233905 78 294 2.0 4.0 0.00 0.00 0.00 69 1027.0
20240619233403 79 51 1.0 2.0 0.00 0.00 0.00 68 1027.0
20240619232902 79 138 2.0 2.0 0.00 0.00 0.00 68 1026.9
20240619232401 79 116 2.0 3.0 0.00 0.00 0.00 67 1027.0
20240619231859 79 88 3.0 3.0 0.00 0.00 0.00 68 1026.8
20240619231359 80 53 1.0 1.0 0.00 0.00 0.00 66 1027.0
20240619230857 79 76 1.0 1.0 0.00 0.00 0.00 67 1026.8
20240619230356 79 51 1.0 2.0 0.00 0.00 0.00 67 1026.7
20240619225856 79 251 2.0 3.0 0.00 0.00 0.00 67 1026.9
20240619225354 80 142 2.0 3.0 0.00 0.00 0.00 67 1026.9
20240619224853 79 49 1.0 1.0 0.00 0.00 0.00 67 1026.8
20240619224352 80 79 2.0 3.0 0.00 0.00 0.00 65 1026.8
20240619223850 80 87 0.0 1.0 0.00 0.00 0.00 65 1026.8
20240619223349 80 155 2.0 3.0 0.00 0.00 0.00 65 1026.8
20240619222848 80 170 1.0 1.0 0.00 0.00 0.00 65 1026.6
20240619222347 80 133 1.0 1.0 0.00 0.00 0.00 67 1026.8
20240619221844 80 20 3.0 3.0 0.00 0.00 0.00 65 1026.8
20240619221343 80 12 2.0 3.0 0.00 0.00 0.00 65 1026.6
20240619220841 80 147 2.0 3.0 0.00 0.00 0.00 65 1026.6
20240619220340 80 53 3.0 3.0 0.00 0.00 0.00 65 1026.4
20240619215838 80 46 1.0 2.0 0.00 0.00 0.00 65 1026.7
20240619215337 78 55 1.0 1.0 0.00 0.00 0.00 65 1026.7
20240619214835 79 115 3.0 4.0 0.00 0.00 0.00 66 1026.7
20240619214334 79 134 3.0 3.0 0.00 0.00 0.00 65 1027.2
20240619213833 79 97 0.0 0.0 0.00 0.00 0.00 66 1026.9
20240619213333 79 37 4.0 6.0 0.00 0.00 0.00 66 1026.8
20240619212831 79 167 6.0 9.0 0.00 0.00 0.00 65 1027.0
20240619212330 80 142 4.0 6.0 0.00 0.00 0.00 64 1027.0
20240619211830 80 130 3.0 4.0 0.00 0.00 0.00 65 1027.1
20240619211329 80 344 1.0 1.0 0.00 0.00 0.00 64 1026.9
20240619210827 80 39 4.0 7.0 0.00 0.00 0.00 63 1026.9
20240619210325 80 272 3.0 6.0 0.00 0.00 0.00 63 1027.1
20240619205824 81 53 2.0 3.0 0.00 0.00 0.00 64 1027.1
20240619205322 81 120 3.0 3.0 0.00 0.00 0.00 64 1027.0
20240619204821 80 199 7.0 8.0 0.00 0.00 0.00 63 1027.2
20240619204321 81 317 6.0 8.0 0.00 0.00 0.00 62 1027.2
20240619203819 81 142 3.0 4.0 0.00 0.00 0.00 60 1027.2
20240619203315 81 127 2.0 3.0 0.00 0.00 0.00 61 1027.2
20240619202814 81 203 1.0 2.0 0.00 0.00 0.00 61 1027.3
20240619202313 82 145 2.0 2.0 0.00 0.00 0.00 61 1027.5
20240619201812 81 155 3.0 3.0 0.00 0.00 0.00 59 1027.4
20240619201311 82 124 3.0 3.0 0.00 0.00 0.00 56 1027.1
20240619200809 82 276 2.0 3.0 0.00 0.00 0.00 57 1027.4
20240619200308 83 339 3.0 4.0 0.00 0.00 0.00 56 1027.2
20240619195806 83 32 9.0 10.0 0.00 0.00 0.00 55 1027.3
20240619195306 83 160 3.0 4.0 0.00 0.00 0.00 55 1027.4
20240619194804 83 234 5.0 8.0 0.00 0.00 0.00 58 1027.2
20240619194302 82 182 2.0 3.0 0.00 0.00 0.00 58 1027.3
20240619193801 83 155 6.0 8.0 0.00 0.00 0.00 55 1027.3
20240619193259 82 159 4.0 8.0 0.00 0.00 0.00 54 1027.4
20240619192759 83 44 2.0 4.0 0.00 0.00 0.00 57 1027.3
20240619192256 84 41 2.0 3.0 0.00 0.00 0.00 55 1027.6
20240619191754 82 47 1.0 2.0 0.00 0.00 0.00 57 1027.5
20240619191252 82 12 9.0 11.0 0.00 0.00 0.00 57 1027.5
20240619190750 83 356 5.0 10.0 0.00 0.00 0.00 56 1027.3
20240619190248 82 44 1.0 1.0 0.00 0.00 0.00 59 1027.5
20240619185746 82 47 3.0 4.0 0.00 0.00 0.00 56 1027.7
20240619185245 83 352 3.0 3.0 0.00 0.00 0.00 55 1027.7
20240619184745 83 160 4.0 8.0 0.00 0.00 0.00 58 1027.6
20240619184244 83 154 4.0 7.0 0.00 0.00 0.00 58 1027.6
20240619183742 83 316 4.0 4.0 0.00 0.00 0.00 57 1027.7
20240619183240 84 140 3.0 4.0 0.00 0.00 0.00 58 1027.9
20240619182740 82 101 4.0 6.0 0.00 0.00 0.00 60 1027.6
20240619182238 83 107 1.0 1.0 0.00 0.00 0.00 56 1027.7
20240619181736 84 105 1.0 2.0 0.00 0.00 0.00 57 1027.6
20240619181236 84 51 5.0 7.0 0.00 0.00 0.00 54 1027.6
20240619180735 83 0 4.0 6.0 0.00 0.00 0.00 56 1027.4
20240619180233 82 152 7.0 11.0 0.00 0.00 0.00 58 1027.5
20240619175707 83 194 5.0 10.0 0.00 0.00 0.00 57 1027.4
20240619175157 83 159 7.0 10.0 0.00 0.00 0.00 59 1027.6
20240619174656 83 140 6.0 7.0 0.00 0.00 0.00 59 1027.6
20240619174153 83 132 7.0 8.0 0.00 0.00 0.00 56 1027.8
20240619173653 83 156 6.0 8.0 0.00 0.00 0.00 58 1027.8
20240619173151 83 49 2.0 2.0 0.00 0.00 0.00 56 1027.8
20240619172647 82 116 2.0 2.0 0.00 0.00 0.00 59 1027.8
20240619172144 81 54 2.0 2.0 0.00 0.00 0.00 59 1027.9
20240619171642 83 169 5.0 6.0 0.00 0.00 0.00 58 1027.9
20240619171142 83 57 4.0 6.0 0.00 0.00 0.00 57 1027.9
20240619170640 83 140 2.0 3.0 0.00 0.00 0.00 60 1027.9
20240619170139 83 160 4.0 6.0 0.00 0.00 0.00 59 1027.7
20240619165638 83 11 2.0 3.0 0.00 0.00 0.00 58 1027.6
20240619165137 84 107 4.0 6.0 0.00 0.00 0.00 58 1027.8
20240619164635 82 142 3.0 3.0 0.00 0.00 0.00 62 1028.0
20240619164133 84 78 2.0 2.0 0.00 0.00 0.00 56 1027.8
20240619163631 82 168 6.0 8.0 0.00 0.00 0.00 57 1027.6
20240619163129 82 173 4.0 6.0 0.00 0.00 0.00 58 1027.8
20240619162621 83 210 6.0 9.0 0.00 0.00 0.00 57 1028.0
20240619162118 83 184 5.0 6.0 0.00 0.00 0.00 57 1027.8
20240619161615 82 189 6.0 8.0 0.00 0.00 0.00 57 1027.6
20240619161114 82 90 3.0 4.0 0.00 0.00 0.00 57 1027.8
20240619160613 82 150 6.0 11.0 0.00 0.00 0.00 57 1028.0
20240619160112 82 162 2.0 3.0 0.00 0.00 0.00 58 1027.9
20240619155612 82 169 10.0 11.0 0.00 0.00 0.00 59 1028.1
20240619155111 82 197 6.0 6.0 0.00 0.00 0.00 60 1028.0
20240619154609 82 154 3.0 3.0 0.00 0.00 0.00 60 1028.1
20240619154108 82 163 3.0 3.0 0.00 0.00 0.00 58 1027.9
20240619153607 82 162 7.0 8.0 0.00 0.00 0.00 59 1027.9
20240619153105 81 183 7.0 10.0 0.00 0.00 0.00 60 1028.0
20240619152605 82 149 7.0 9.0 0.00 0.00 0.00 59 1028.1
20240619152103 82 132 3.0 3.0 0.00 0.00 0.00 62 1027.9
20240619151602 82 158 2.0 2.0 0.00 0.00 0.00 63 1027.7
20240619151101 82 39 1.0 2.0 0.00 0.00 0.00 60 1027.8
20240619150559 82 156 2.0 3.0 0.00 0.00 0.00 57 1027.8
20240619150100 83 103 3.0 4.0 0.00 0.00 0.00 58 1027.9
20240619145559 81 160 5.0 6.0 0.00 0.00 0.00 61 1027.8
20240619145058 81 1 2.0 2.0 0.00 0.00 0.00 60 1027.9
20240619144557 80 181 2.0 4.0 0.00 0.00 0.00 65 1028.0
20240619144057 81 161 3.0 3.0 0.00 0.00 0.00 62 1028.3
20240619143556 80 259 2.0 3.0 0.00 0.00 0.00 64 1028.1
20240619143055 81 35 2.0 2.0 0.00 0.00 0.00 63 1028.2
20240619142554 81 149 5.0 6.0 0.00 0.00 0.00 59 1028.0
20240619142052 80 161 6.0 7.0 0.00 0.00 0.00 64 1028.2
20240619141552 80 60 2.0 2.0 0.00 0.00 0.00 63 1027.9
20240619141051 81 158 4.0 8.0 0.00 0.00 0.00 63 1028.1
20240619140550 81 162 5.0 6.0 0.00 0.00 0.00 62 1028.1
20240619140050 80 156 6.0 7.0 0.00 0.00 0.00 63 1028.1
20240619135548 80 47 3.0 4.0 0.00 0.00 0.00 65 1027.8
20240619135048 80 181 3.0 4.0 0.00 0.00 0.00 65 1028.0
20240619134546 80 125 4.0 4.0 0.00 0.00 0.00 67 1027.8
20240619134046 80 183 4.0 6.0 0.00 0.00 0.00 65 1027.8
20240619133544 80 79 2.0 3.0 0.00 0.00 0.00 67 1027.8
20240619133043 81 131 3.0 4.0 0.00 0.00 0.00 68 1027.7
20240619132542 81 112 2.0 3.0 0.00 0.00 0.00 66 1027.7
20240619132040 80 80 5.0 8.0 0.00 0.00 0.00 68 1027.9
20240619131538 80 147 2.0 3.0 0.00 0.00 0.00 68 1027.8
20240619131036 80 135 4.0 6.0 0.00 0.00 0.00 68 1027.7
20240619130535 79 168 6.0 9.0 0.00 0.00 0.00 70 1027.9
20240619130033 79 163 4.0 7.0 0.00 0.00 0.00 72 1027.7
20240619125532 79 167 3.0 4.0 0.00 0.00 0.00 72 1027.6
20240619125031 78 147 4.0 6.0 0.00 0.00 0.00 75 1027.6
20240619124529 78 62 2.0 2.0 0.00 0.00 0.00 75 1027.5
20240619124029 78 350 4.0 6.0 0.00 0.00 0.00 76 1027.6
20240619123528 78 170 3.0 3.0 0.00 0.00 0.00 78 1027.5
20240619123027 78 33 3.0 8.0 0.00 0.00 0.00 77 1027.5
20240619122526 78 275 2.0 3.0 0.00 0.00 0.00 79 1027.4
20240619122024 78 56 1.0 1.0 0.00 0.00 0.00 81 1027.3
20240619121521 79 132 2.0 3.0 0.00 0.00 0.00 82 1027.5
20240619121020 77 50 0.0 1.0 0.00 0.00 0.00 84 1027.4
20240619120518 77 35 2.0 2.0 0.00 0.00 0.00 84 1027.6
20240619120018 77 50 2.0 3.0 0.00 0.00 0.00 84 1027.4
20240619115515 76 54 1.0 1.0 0.00 0.00 0.00 86 1027.4
20240619115013 76 49 0.0 0.0 0.00 0.00 0.00 85 1027.1
20240619114512 75 53 0.0 0.0 0.00 0.00 0.00 86 1027.1
20240619114012 73 62 0.0 0.0 0.00 0.00 0.00 90 1027.3
20240619113511 72 60 1.0 1.0 0.00 0.00 0.00 93 1027.2
20240619113011 72 37 2.0 2.0 0.00 0.00 0.00 95 1027.3
20240619112509 71 48 0.0 1.0 0.00 0.00 0.00 97 1027.2
20240619112009 71 51 0.0 0.0 0.00 0.00 0.00 98 1027.2
20240619111507 70 52 0.0 0.0 0.00 0.00 0.00 98 1026.9
20240619111005 69 54 0.0 0.0 0.00 0.00 0.00 98 1026.9
20240619110506 69 49 0.0 1.0 0.00 0.00 0.00 99 1027.1
20240619110005 68 51 0.0 0.0 0.00 0.00 0.00 99 1027.1
20240619105503 68 31 1.0 1.0 0.00 0.00 0.00 99 1027.0
20240619105002 67 30 0.0 1.0 0.00 0.00 0.00 99 1026.8
20240619104502 66 50 0.0 1.0 0.00 0.00 0.00 99 1026.7
20240619104000 65 50 0.0 0.0 0.00 0.00 0.00 99 1026.8
20240619103458 65 53 0.0 0.0 0.00 0.00 0.00 99 1026.7
20240619102956 64 48 0.0 0.0 0.00 0.00 0.00 99 1026.8
20240619102455 64 54 0.0 0.0 0.00 0.00 0.00 99 1026.6
20240619101954 64 54 0.0 0.0 0.00 0.00 0.00 99 1026.6
20240619101452 64 54 0.0 0.0 0.00 0.00 0.00 99 1026.5
20240619100951 64 58 0.0 0.0 0.00 0.00 0.00 99 1026.7
20240619100450 63 44 1.0 1.0 0.00 0.00 0.00 99 1026.5
20240619095949 62 54 0.0 0.0 0.00 0.00 0.00 99 1026.5
20240619095449 62 56 0.0 0.0 0.00 0.00 0.00 99 1026.3
20240619094948 62 57 0.0 0.0 0.00 0.00 0.00 99 1026.3
20240619094446 61 60 0.0 0.0 0.00 0.00 0.00 99 1026.3
20240619093945 61 58 0.0 0.0 0.00 0.00 0.00 99 1026.4
20240619093444 61 62 0.0 0.0 0.00 0.00 0.00 99 1026.2
20240619092944 62 63 0.0 0.0 0.00 0.00 0.00 99 1026.1
20240619092443 62 63 0.0 0.0 0.00 0.00 0.00 99 1026.2
20240619091942 62 64 0.0 0.0 0.00 0.00 0.00 99 1026.1
20240619091440 62 65 0.0 0.0 0.00 0.00 0.00 99 1026.0
20240619090939 62 71 0.0 0.0 0.00 0.00 0.00 99 1025.9
20240619090437 62 61 0.0 0.0 0.00 0.00 0.00 99 1025.9
20240619085938 62 61 0.0 0.0 0.00 0.00 0.00 99 1025.7
20240619085436 62 61 0.0 0.0 0.00 0.00 0.00 99 1025.9
20240619084935 62 60 0.0 0.0 0.00 0.00 0.00 99 1025.6
20240619084435 62 60 0.0 0.0 0.00 0.00 0.00 99 1025.6
20240619083936 63 58 0.0 0.0 0.00 0.00 0.00 99 1025.6
20240619083434 62 58 0.0 0.0 0.00 0.00 0.00 99 1025.7
20240619082933 62 58 0.0 0.0 0.00 0.00 0.00 98 1025.5
20240619082432 62 58 0.0 0.0 0.00 0.00 0.00 98 1025.4
20240619081930 62 58 0.0 0.0 0.00 0.00 0.00 98 1025.5
20240619081430 62 59 0.0 0.0 0.00 0.00 0.00 98 1025.4
20240619080929 62 61 0.0 0.0 0.00 0.00 0.00 98 1025.6
20240619080428 62 58 0.0 0.0 0.00 0.00 0.00 98 1025.7
20240619075926 62 56 0.0 0.0 0.00 0.00 0.00 98 1025.5
20240619075425 63 55 0.0 0.0 0.00 0.00 0.00 98 1025.5
20240619074923 63 56 0.0 0.0 0.00 0.00 0.00 98 1025.6
20240619074421 62 57 0.0 0.0 0.00 0.00 0.00 98 1025.4
20240619073920 63 57 0.0 0.0 0.00 0.00 0.00 98 1025.3
20240619073418 62 59 0.0 0.0 0.00 0.00 0.00 98 1025.2
20240619072917 62 57 0.0 0.0 0.00 0.00 0.00 98 1025.4
20240619072416 63 62 0.0 0.0 0.00 0.00 0.00 98 1025.3
20240619071914 63 56 0.0 0.0 0.00 0.00 0.00 98 1025.4
20240619071414 63 55 0.0 0.0 0.00 0.00 0.00 98 1025.3
20240619070913 64 55 0.0 0.0 0.00 0.00 0.00 98 1025.3
20240619070412 63 46 1.0 1.0 0.00 0.00 0.00 98 1025.2
20240619065911 63 48 0.0 0.0 0.00 0.00 0.00 98 1025.2
20240619065410 63 63 0.0 0.0 0.00 0.00 0.00 98 1025.1
20240619064908 64 68 0.0 0.0 0.00 0.00 0.00 98 1025.2
20240619064409 64 67 0.0 0.0 0.00 0.00 0.00 98 1025.1
20240619063908 65 56 0.0 0.0 0.00 0.00 0.00 98 1025.3
20240619063407 65 53 0.0 0.0 0.00 0.00 0.00 98 1025.4
20240619062905 64 49 1.0 1.0 0.00 0.00 0.00 98 1025.2
20240619062403 65 43 1.0 1.0 0.00 0.00 0.00 98 1025.3
20240619061903 64 57 0.0 0.0 0.00 0.00 0.00 98 1025.2
20240619061403 65 56 0.0 0.0 0.00 0.00 0.00 98 1025.1
20240619060902 65 56 0.0 0.0 0.00 0.00 0.00 98 1025.0
20240619060401 64 55 0.0 0.0 0.00 0.00 0.00 98 1025.1
20240619055859 65 56 0.0 0.0 0.00 0.00 0.00 98 1025.3
20240619055359 65 56 0.0 0.0 0.00 0.00 0.00 98 1025.4
20240619054858 65 56 0.0 0.0 0.00 0.00 0.00 98 1025.1
20240619054357 65 35 1.0 1.0 0.00 0.00 0.00 97 1025.2
20240619053857 65 53 0.0 0.0 0.00 0.00 0.00 97 1025.2
20240619053356 65 57 0.0 0.0 0.00 0.00 0.00 97 1025.1
20240619052856 65 56 0.0 0.0 0.00 0.00 0.00 97 1025.3
20240619052355 64 57 0.0 0.0 0.00 0.00 0.00 97 1025.4
20240619051853 65 64 0.0 0.0 0.00 0.00 0.00 97 1025.3
20240619051351 65 56 0.0 0.0 0.00 0.00 0.00 97 1025.4
20240619050849 66 57 0.0 0.0 0.00 0.00 0.00 97 1025.4
20240619050349 66 57 0.0 0.0 0.00 0.00 0.00 97 1025.4
20240619045847 66 56 0.0 0.0 0.00 0.00 0.00 97 1025.4
20240619045346 65 58 0.0 0.0 0.00 0.00 0.00 97 1025.4
20240619044846 65 61 0.0 0.0 0.00 0.00 0.00 97 1025.4
20240619044345 66 58 0.0 0.0 0.00 0.00 0.00 97 1025.3
20240619043844 66 58 0.0 0.0 0.00 0.00 0.00 97 1025.5
20240619043343 66 55 0.0 0.0 0.00 0.00 0.00 97 1025.2
20240619042841 66 41 1.0 1.0 0.00 0.00 0.00 97 1025.3
20240619042340 66 39 1.0 1.0 0.00 0.00 0.00 97 1025.3
20240619041838 66 55 0.0 0.0 0.00 0.00 0.00 97 1025.1
20240619041337 66 51 0.0 0.0 0.00 0.00 0.00 97 1025.0
20240619040837 67 58 0.0 0.0 0.00 0.00 0.00 97 1025.3
20240619040335 66 56 0.0 0.0 0.00 0.00 0.00 96 1025.2
20240619035834 67 63 0.0 0.0 0.00 0.00 0.00 96 1025.2
20240619035332 67 56 0.0 0.0 0.00 0.00 0.00 96 1025.4
20240619034830 66 54 0.0 0.0 0.00 0.00 0.00 96 1025.6
20240619034328 67 62 0.0 0.0 0.00 0.00 0.00 96 1025.2
20240619033827 66 62 0.0 0.0 0.00 0.00 0.00 96 1025.5
20240619033326 67 64 0.0 0.0 0.00 0.00 0.00 96 1025.5
20240619032824 67 57 0.0 0.0 0.00 0.00 0.00 96 1025.5
20240619032323 68 56 0.0 0.0 0.00 0.00 0.00 95 1025.5
20240619031821 68 53 0.0 0.0 0.00 0.00 0.00 95 1025.5
20240619031321 68 58 0.0 0.0 0.00 0.00 0.00 95 1025.5
20240619030819 68 64 0.0 0.0 0.00 0.00 0.00 95 1025.6
20240619030317 68 57 0.0 0.0 0.00 0.00 0.00 95 1025.7